Time;durP1;ratioP1;P1;durP2;ratioP2;P2;SDS_P1;SDS_P2;PMS_P1;PMS_P2;Temp;Humidity;BMP_temperature;BMP_pressure;BME280_temperature;BME280_humidity;BME280_pressure;Samples;Min_cycle;Max_cycle;Signal;HPM_P1;HPM_P2
2023/10/13 00:00:42;;;;;;;11.93;6.17;;;;;;;10.66;81.27;100387.88;5026641;28;20217;-72
2023/10/13 00:03:16;;;;;;;11.67;6.23;;;;;;;10.61;81.18;100385.34;5028341;28;20206;-72
2023/10/13 00:05:44;;;;;;;11.00;6.23;;;;;;;10.59;81.50;100393.94;5028286;28;20202;-74
2023/10/13 00:08:13;;;;;;;9.47;6.47;;;;;;;10.55;81.47;100390.53;5021668;28;20207;-73
2023/10/13 00:10:42;;;;;;;14.07;6.60;;;;;;;10.48;81.75;100386.28;5026003;28;20297;-75
2023/10/13 00:13:12;;;;;;;10.23;6.80;;;;;;;10.47;82.26;100389.72;5027900;28;20217;-71
2023/10/13 00:15:56;;;;;;;10.27;6.30;;;;;;;10.44;82.32;100391.47;5029598;28;20207;-73
2023/10/13 00:18:30;;;;;;;13.97;7.00;;;;;;;10.43;82.56;100390.63;5027073;28;20239;-73
2023/10/13 00:21:03;;;;;;;13.40;6.63;;;;;;;10.45;82.42;100394.03;5030551;28;20257;-73
2023/10/13 00:23:32;;;;;;;12.83;6.13;;;;;;;10.42;82.11;100386.34;5026236;28;20207;-72
2023/10/13 00:26:02;;;;;;;10.23;6.80;;;;;;;10.44;82.02;100386.31;5029369;28;20199;-72
2023/10/13 00:28:43;;;;;;;10.77;6.10;;;;;;;10.38;82.39;100389.75;5028374;28;20528;-71
2023/10/13 00:31:13;;;;;;;11.00;6.50;;;;;;;10.36;82.43;100389.78;5028573;28;20272;-72
2023/10/13 00:33:42;;;;;;;9.97;6.80;;;;;;;10.40;82.44;100395.78;5029531;28;20210;-70
2023/10/13 00:36:19;;;;;;;11.67;7.00;;;;;;;10.42;82.58;100391.50;5022898;28;20230;-73
2023/10/13 00:38:52;;;;;;;12.43;7.23;;;;;;;10.42;82.48;100388.03;5033470;28;20293;-72
2023/10/13 00:41:49;;;;;;;12.60;6.93;;;;;;;10.46;82.11;100400.91;5032892;28;20194;-73
2023/10/13 00:44:16;;;;;;;11.13;6.50;;;;;;;10.41;82.25;100402.63;5031824;28;20226;-72
2023/10/13 00:46:45;;;;;;;12.50;6.53;;;;;;;10.46;82.28;100416.38;5032251;28;20207;-74
2023/10/13 00:49:16;;;;;;;12.60;7.23;;;;;;;10.46;81.98;100418.94;5031005;28;20207;-73
2023/10/13 00:51:47;;;;;;;13.40;7.03;;;;;;;10.46;82.31;100418.09;5031239;28;20290;-66
2023/10/13 00:54:26;;;;;;;12.27;6.80;;;;;;;10.45;82.39;100412.06;5032826;28;20728;-73
2023/10/13 00:57:12;;;;;;;10.67;6.80;;;;;;;10.44;82.42;100417.22;5032437;28;20203;-73
2023/10/13 00:59:46;;;;;;;11.40;6.47;;;;;;;10.45;82.23;100417.19;5029456;28;20229;-73
2023/10/13 01:02:37;;;;;;;14.13;7.87;;;;;;;10.42;82.12;100417.25;5029839;28;20584;-73
2023/10/13 01:05:09;;;;;;;13.00;7.40;;;;;;;10.40;82.33;100406.94;5030867;28;20202;-74
2023/10/13 01:07:39;;;;;;;13.97;7.33;;;;;;;10.43;82.85;100418.94;5039832;28;20216;-69
2023/10/13 01:10:14;;;;;;;14.40;7.17;;;;;;;10.42;82.46;100404.38;5033622;28;20561;-72
2023/10/13 01:12:42;;;;;;;12.13;6.73;;;;;;;10.40;82.45;100412.09;5032321;28;20296;-71
2023/10/13 01:15:11;;;;;;;12.13;7.13;;;;;;;10.39;82.33;100422.41;5032702;28;20514;-72
2023/10/13 01:17:46;;;;;;;15.07;7.30;;;;;;;10.37;82.55;100424.13;5032123;28;20245;-73
2023/10/13 01:20:24;;;;;;;11.43;7.57;;;;;;;10.35;82.79;100420.72;5031789;28;20323;-73
2023/10/13 01:22:55;;;;;;;14.83;7.47;;;;;;;10.36;82.62;100423.25;5032414;28;20206;-75
2023/10/13 01:25:27;;;;;;;11.80;6.90;;;;;;;10.35;82.37;100428.44;5023175;28;20585;-73
2023/10/13 01:27:55;;;;;;;12.00;6.77;;;;;;;10.33;82.65;100431.00;5033304;28;20717;-73
2023/10/13 01:30:24;;;;;;;13.07;6.73;;;;;;;10.32;82.80;100420.72;5032445;28;20290;-73
2023/10/13 01:32:53;;;;;;;15.63;8.87;;;;;;;10.34;83.00;100429.28;5032138;28;20215;-73
2023/10/13 01:35:25;;;;;;;13.70;7.37;;;;;;;10.31;82.98;100435.31;5030912;28;20218;-75
2023/10/13 01:37:52;;;;;;;11.10;7.33;;;;;;;10.33;83.02;100430.16;5032554;28;20202;-72
2023/10/13 01:40:20;;;;;;;12.57;7.53;;;;;;;10.32;82.47;100433.59;5031485;28;20925;-73
2023/10/13 01:42:55;;;;;;;13.43;7.37;;;;;;;10.30;82.99;100436.16;5031639;28;20211;-73
2023/10/13 01:45:28;;;;;;;12.77;7.43;;;;;;;10.29;82.98;100442.19;5028504;28;20202;-73
2023/10/13 01:47:56;;;;;;;12.50;7.83;;;;;;;10.28;82.98;100437.06;5030798;28;20206;-73
2023/10/13 01:50:29;;;;;;;11.83;7.93;;;;;;;10.20;82.70;100437.06;5029582;28;20202;-71
2023/10/13 01:53:10;;;;;;;10.63;7.00;;;;;;;10.20;83.57;100428.44;5024565;28;20273;-71
2023/10/13 01:55:42;;;;;;;13.73;7.37;;;;;;;10.19;83.70;100427.59;5034010;28;20642;-73
2023/10/13 01:58:15;;;;;;;10.97;7.43;;;;;;;10.19;83.38;100426.75;5025021;28;20666;-71
2023/10/13 02:00:45;;;;;;;11.17;7.13;;;;;;;10.16;83.31;100418.19;5032558;28;20298;-68
2023/10/13 02:03:16;;;;;;;15.97;7.37;;;;;;;10.14;83.39;100414.75;5031738;28;20202;-72
2023/10/13 02:05:47;;;;;;;10.97;7.37;;;;;;;10.12;83.33;100415.59;5032377;28;20206;-72
2023/10/13 02:08:18;;;;;;;12.70;7.33;;;;;;;10.09;83.70;100406.19;5032197;28;20205;-72
2023/10/13 02:10:47;;;;;;;12.70;6.80;;;;;;;10.09;83.71;100421.66;5025475;28;20218;-66
2023/10/13 02:13:17;;;;;;;14.20;7.53;;;;;;;10.08;84.08;100413.91;5030957;28;20226;-66
2023/10/13 02:15:46;;;;;;;14.73;7.97;;;;;;;10.07;84.02;100415.63;5030522;28;20203;-65
2023/10/13 02:18:20;;;;;;;17.40;7.47;;;;;;;10.07;83.87;100423.34;5028225;28;20202;-66
2023/10/13 02:20:54;;;;;;;10.57;7.40;;;;;;;10.07;83.79;100423.34;5030439;28;20205;-64
2023/10/13 02:23:24;;;;;;;16.33;7.83;;;;;;;10.05;84.09;100427.66;5019501;28;20210;-65
2023/10/13 02:26:00;;;;;;;12.13;7.13;;;;;;;10.03;84.11;100424.22;5030343;28;20206;-66
2023/10/13 02:28:30;;;;;;;11.13;7.67;;;;;;;10.02;83.71;100421.66;5042073;28;20210;-66
2023/10/13 02:31:03;;;;;;;14.23;7.50;;;;;;;9.99;84.20;100425.09;5029797;28;20209;-65
2023/10/13 02:33:30;;;;;;;16.63;8.27;;;;;;;10.01;84.22;100427.66;5028321;28;20253;-66
2023/10/13 02:36:03;;;;;;;11.87;7.67;;;;;;;9.99;84.12;100429.41;5030522;28;20213;-63
2023/10/13 02:38:35;;;;;;;13.20;7.27;;;;;;;9.97;83.89;100425.97;5026453;28;20662;-64
2023/10/13 02:41:06;;;;;;;13.20;7.60;;;;;;;9.94;84.43;100429.38;5032532;28;20211;-66
2023/10/13 02:43:36;;;;;;;13.23;7.10;;;;;;;9.94;84.17;100429.38;5027429;28;20211;-65
2023/10/13 02:46:04;;;;;;;11.67;7.23;;;;;;;9.89;84.06;100428.56;5030006;28;20234;-64
2023/10/13 02:48:40;;;;;;;14.33;6.90;;;;;;;9.91;84.22;100438.00;5030256;28;20450;-65
2023/10/13 02:51:16;;;;;;;12.60;6.87;;;;;;;9.88;83.91;100438.00;5028284;28;20293;-65
2023/10/13 02:53:47;;;;;;;11.17;6.43;;;;;;;9.84;84.83;100431.16;5029893;28;20246;-65
2023/10/13 02:56:20;;;;;;;12.33;6.97;;;;;;;9.85;84.37;100435.44;5029270;28;20247;-66
2023/10/13 02:58:53;;;;;;;10.87;6.30;;;;;;;9.84;84.56;100431.16;5030876;28;20207;-66
2023/10/13 03:01:26;;;;;;;14.73;7.30;;;;;;;9.86;84.78;100433.72;5020889;28;20625;-65
2023/10/13 03:03:55;;;;;;;13.17;7.93;;;;;;;9.86;84.85;100423.41;5028653;28;20264;-65
2023/10/13 03:06:32;;;;;;;13.30;7.17;;;;;;;9.89;85.11;100428.56;5026670;28;20199;-65
2023/10/13 03:09:13;;;;;;;12.10;6.63;;;;;;;9.93;84.44;100425.09;5028891;28;20202;-63
2023/10/13 03:11:48;;;;;;;12.53;6.90;;;;;;;9.97;84.24;100431.09;5028980;28;20741;-65
2023/10/13 03:14:28;;;;;;;11.60;6.73;;;;;;;9.98;84.38;100423.41;5029318;28;20640;-64
2023/10/13 03:17:05;;;;;;;13.03;6.83;;;;;;;10.01;84.09;100420.78;5029206;28;20272;-65
2023/10/13 03:19:33;;;;;;;11.73;7.23;;;;;;;10.03;83.85;100408.78;5030441;28;20814;-62
2023/10/13 03:22:09;;;;;;;15.27;7.53;;;;;;;10.04;84.00;100413.06;5022825;28;20214;-60
2023/10/13 03:24:36;;;;;;;11.93;7.17;;;;;;;10.05;83.92;100412.22;5032553;28;20226;-61
2023/10/13 03:27:09;;;;;;;13.43;7.70;;;;;;;10.04;83.88;100407.91;5026793;28;20234;-58
2023/10/13 03:29:42;;;;;;;12.77;6.80;;;;;;;10.10;83.99;100412.19;5030106;28;20205;-60
2023/10/13 03:32:15;;;;;;;13.57;6.70;;;;;;;10.12;83.15;100400.16;5027200;28;20268;-58
2023/10/13 03:35:06;;;;;;;15.70;7.57;;;;;;;10.19;83.48;100406.13;5029391;28;20245;-60
2023/10/13 03:37:38;;;;;;;13.87;7.10;;;;;;;10.22;82.68;100409.56;5025724;28;20206;-59
2023/10/13 03:40:33;;;;;;;11.37;6.93;;;;;;;10.21;82.52;100413.00;5031218;28;20308;-61
2023/10/13 03:43:04;;;;;;;13.80;7.40;;;;;;;10.24;82.87;100425.03;5028036;28;20268;-60
2023/10/13 03:45:42;;;;;;;14.80;7.60;;;;;;;10.23;83.04;100429.28;5024296;28;20285;-62
2023/10/13 03:48:20;;;;;;;12.00;7.27;;;;;;;10.23;82.92;100424.13;5026729;28;20300;-59
2023/10/13 03:50:57;;;;;;;12.27;6.83;;;;;;;10.23;82.77;100419.00;5027311;28;20202;-60
2023/10/13 03:53:26;;;;;;;12.67;6.87;;;;;;;10.18;83.00;100419.88;5028628;28;20249;-63
2023/10/13 03:56:07;;;;;;;11.57;6.57;;;;;;;10.13;82.98;100423.34;5031671;28;20202;-60
2023/10/13 03:58:36;;;;;;;12.67;7.23;;;;;;;10.09;83.69;100419.06;5030359;28;20602;-60
2023/10/13 04:01:09;;;;;;;10.33;7.10;;;;;;;10.07;83.75;100418.19;5025728;28;20280;-60
2023/10/13 04:03:38;;;;;;;10.60;6.43;;;;;;;10.04;83.68;100423.34;5035782;28;20206;-60
2023/10/13 04:06:08;;;;;;;11.83;6.13;;;;;;;10.04;83.62;100427.66;5030134;28;20660;-60
2023/10/13 04:09:24;;;;;;;14.20;6.47;;;;;;;10.04;83.81;100443.94;5027015;28;20199;-64
2023/10/13 04:12:18;;;;;;;11.57;5.90;;;;;;;10.04;83.64;100437.94;5022896;28;20320;-59
2023/10/13 04:15:14;;;;;;;10.50;6.27;;;;;;;10.03;83.75;100436.25;5032351;28;20233;-59
2023/10/13 04:17:45;;;;;;;8.90;5.97;;;;;;;10.05;84.32;100430.25;5032470;28;20685;-60
2023/10/13 04:20:26;;;;;;;10.40;6.27;;;;;;;10.10;83.99;100425.06;5031205;28;20210;-59
2023/10/13 04:26:05;;;;;;;11.53;5.50;;;;;;;10.08;83.76;100419.91;5031632;28;20660;-60
2023/10/13 04:28:50;;;;;;;10.20;6.10;;;;;;;10.05;83.43;100419.94;5030756;28;20580;-65
2023/10/13 04:31:46;;;;;;;9.80;6.27;;;;;;;10.01;83.85;100422.50;5032416;28;20632;-61
2023/10/13 04:34:27;;;;;;;13.03;6.17;;;;;;;10.03;84.64;100431.09;5024171;28;20195;-61
2023/10/13 04:37:11;;;;;;;11.73;6.23;;;;;;;10.03;84.01;100425.94;5031520;28;20198;-60
2023/10/13 04:39:56;;;;;;;9.47;5.50;;;;;;;10.01;83.76;100422.50;5030904;28;20207;-60
2023/10/13 04:42:39;;;;;;;11.70;6.30;;;;;;;10.03;83.95;100424.22;5027599;28;20574;-59
2023/10/13 04:45:27;;;;;;;17.03;5.40;;;;;;;10.06;83.85;100431.94;5030924;28;20238;-61
2023/10/13 04:48:13;;;;;;;10.27;6.07;;;;;;;10.10;83.61;100430.22;5028460;28;20199;-58
2023/10/13 04:50:46;;;;;;;12.43;6.00;;;;;;;10.14;83.49;100424.19;5029539;28;20653;-59
2023/10/13 04:53:29;;;;;;;12.47;5.00;;;;;;;10.14;83.25;100425.03;5030170;28;20246;-61
2023/10/13 04:56:07;;;;;;;9.27;5.67;;;;;;;10.14;83.26;100417.31;5024681;28;20588;-61
2023/10/13 05:02:01;;;;;;;9.20;5.60;;;;;;;10.20;83.04;100425.88;5021612;28;20590;-59
2023/10/13 05:04:38;;;;;;;11.97;4.83;;;;;;;10.23;82.80;100419.00;5029489;28;20226;-60
2023/10/13 05:47:01;;;;;;;19.30;7.07;;;;;;;10.52;81.24;100462.69;5031388;28;20209;-64
2023/10/13 05:49:50;;;;;;;31.80;7.77;;;;;;;10.54;81.51;100466.13;5025780;28;20642;-65
2023/10/13 06:28:40;;;;;;;14.87;6.07;;;;;;;10.61;81.37;100474.69;5033959;28;20205;-64
2023/10/13 06:28:41;;;;;;;16.00;6.20;;;;;;;12.11;77.23;100517.44;5027194;28;20669;-66
2023/10/13 06:31:22;;;;;;;14.90;5.30;;;;;;;12.18;76.64;100511.31;5031850;28;20206;-65
2023/10/13 06:33:51;;;;;;;14.20;5.80;;;;;;;12.30;76.59;100511.22;5030037;28;20677;-67
2023/10/13 06:36:19;;;;;;;17.70;6.53;;;;;;;12.46;76.28;100509.31;5031861;28;20549;-67
2023/10/13 06:38:54;;;;;;;15.73;6.00;;;;;;;12.65;75.97;100503.91;5032020;28;20237;-67
2023/10/13 06:41:31;;;;;;;11.57;6.13;;;;;;;12.80;75.19;100506.28;5040092;28;20218;-66
2023/10/13 06:44:05;;;;;;;13.90;5.70;;;;;;;12.86;74.05;100501.03;5040837;28;20198;-66
2023/10/13 06:46:34;;;;;;;13.80;5.40;;;;;;;12.98;74.61;100497.44;5032162;28;20728;-66
2023/10/13 06:49:03;;;;;;;21.27;7.63;;;;;;;13.26;74.72;100495.34;5032142;28;20290;-66
2023/10/13 06:51:37;;;;;;;17.70;6.50;;;;;;;13.62;73.29;100498.19;5030743;28;20642;-63
2023/10/13 06:54:11;;;;;;;15.00;5.57;;;;;;;14.00;71.95;100489.75;5021684;28;20242;-63
2023/10/13 06:56:40;;;;;;;10.73;4.23;;;;;;;14.32;70.06;100489.13;5028251;28;20653;-62
2023/10/13 06:59:13;;;;;;;13.57;4.60;;;;;;;14.55;68.42;100491.31;5028530;28;20233;-63
2023/10/13 07:01:44;;;;;;;11.43;3.63;;;;;;;14.69;66.87;100481.50;5023587;28;20250;-63
2023/10/13 07:04:16;;;;;;;11.57;3.87;;;;;;;14.72;65.06;100485.75;5025982;28;20314;-64
2023/10/13 07:06:48;;;;;;;10.30;3.42;;;;;;;14.79;64.22;100483.88;5032179;28;20209;-67
2023/10/13 07:09:39;;;;;;;12.63;4.17;;;;;;;14.89;63.60;100481.03;5027816;28;20684;-63
2023/10/13 07:12:16;;;;;;;10.07;3.43;;;;;;;14.97;62.40;100483.47;5023883;28;20298;-62
2023/10/13 07:14:59;;;;;;;9.57;4.30;;;;;;;14.89;62.49;100493.16;5026234;28;20293;-64
2023/10/13 07:17:33;;;;;;;9.40;4.27;;;;;;;14.72;63.23;100489.19;5029872;28;20207;-63
2023/10/13 07:20:14;;;;;;;8.67;4.27;;;;;;;14.54;63.82;100496.50;5030376;28;20209;-63
2023/10/13 07:22:54;;;;;;;9.00;3.90;;;;;;;14.33;64.60;100493.44;5022224;28;21024;-64
2023/10/13 07:25:26;;;;;;;7.73;4.20;;;;;;;14.13;65.35;100503.31;5033296;28;20301;-64
2023/10/13 07:27:56;;;;;;;9.67;4.37;;;;;;;13.97;66.43;100503.63;5015980;28;20207;-63
2023/10/13 07:30:27;;;;;;;8.17;3.90;;;;;;;13.84;67.04;100496.09;5031606;28;20210;-62
2023/10/13 07:32:59;;;;;;;10.27;3.93;;;;;;;13.78;67.47;100502.25;5028620;28;20658;-64
2023/10/13 07:35:31;;;;;;;7.03;3.67;;;;;;;13.68;67.23;100498.94;5023883;28;20210;-63
2023/10/13 07:38:00;;;;;;;6.83;3.33;;;;;;;13.62;68.27;100498.19;5033254;28;20658;-66
2023/10/13 07:40:40;;;;;;;8.37;4.47;;;;;;;13.60;68.77;100492.19;5028753;28;20302;-64
2023/10/13 07:43:13;;;;;;;11.40;3.97;;;;;;;13.62;68.69;100496.44;5025110;28;20285;-62
2023/10/13 07:45:42;;;;;;;9.03;3.43;;;;;;;13.60;68.65;100493.03;5029636;28;20689;-63
2023/10/13 07:48:19;;;;;;;8.03;3.60;;;;;;;13.50;69.46;100489.75;5031692;28;20301;-64
2023/10/13 07:50:48;;;;;;;9.40;4.07;;;;;;;13.44;69.28;100487.28;5032527;28;20672;-65
2023/10/13 07:53:22;;;;;;;8.23;4.23;;;;;;;13.39;70.22;100477.88;5041216;28;20709;-64
2023/10/13 07:55:55;;;;;;;8.87;4.17;;;;;;;13.35;70.20;100479.66;5033511;28;20202;-68
2023/10/13 07:58:25;;;;;;;10.30;4.17;;;;;;;13.36;70.79;100486.53;5033222;28;21219;-63
2023/10/13 08:01:07;;;;;;;9.87;3.30;;;;;;;13.36;70.47;100486.53;5028739;28;20376;-64
2023/10/13 08:03:46;;;;;;;9.73;3.50;;;;;;;13.29;70.16;100484.91;5033652;28;20653;-72
2023/10/13 08:06:28;;;;;;;10.20;3.63;;;;;;;13.20;70.22;100478.13;5037714;28;20720;-75
2023/10/13 08:09:08;;;;;;;8.70;3.70;;;;;;;13.09;71.29;100468.81;5033815;28;20289;-71
2023/10/13 08:11:38;;;;;;;10.07;3.63;;;;;;;13.10;72.07;100460.16;5030702;28;20198;-67
2023/10/13 08:14:22;;;;;;;8.80;3.43;;;;;;;13.15;71.93;100468.72;5028234;28;20213;-71
2023/10/13 08:17:07;;;;;;;8.40;3.30;;;;;;;13.20;71.53;100472.09;5032295;28;20202;-67
2023/10/13 08:19:41;;;;;;;8.67;3.00;;;;;;;13.25;72.16;100468.56;5032204;28;20213;-69
2023/10/13 08:22:35;;;;;;;10.03;3.60;;;;;;;13.30;71.41;100463.34;5035108;28;20784;-69
2023/10/13 08:25:24;;;;;;;8.67;3.43;;;;;;;13.27;71.93;100455.63;5032093;28;20573;-67
2023/10/13 08:30:56;;;;;;;8.10;3.90;;;;;;;13.33;72.53;100447.78;5025525;28;20214;-70
2023/10/13 08:33:27;;;;;;;8.13;4.10;;;;;;;13.38;72.51;100445.09;5029468;28;20206;-71
2023/10/13 08:36:18;;;;;;;7.67;4.00;;;;;;;13.40;71.95;100451.97;5032760;28;20206;-72
2023/10/13 08:38:55;;;;;;;8.47;3.60;;;;;;;13.44;72.78;100445.84;5030906;28;20322;-69
2023/10/13 08:41:31;;;;;;;11.13;3.93;;;;;;;13.64;72.93;100449.84;5029059;28;20195;-70
2023/10/13 08:44:06;;;;;;;9.60;4.60;;;;;;;13.75;71.66;100455.66;5026448;28;20198;-72
2023/10/13 08:49:17;;;;;;;10.70;4.83;;;;;;;13.68;72.40;100456.66;5029009;28;20598;-66
2023/10/13 08:56:01;;;;;;;9.90;5.67;;;;;;;14.01;73.10;100452.59;5006795;28;20261;-70
2023/10/13 08:58:59;;;;;;;10.37;5.53;;;;;;;14.09;71.94;100449.84;5030232;28;20274;-68
2023/10/13 09:01:34;;;;;;;9.20;5.90;;;;;;;14.12;72.21;100444.63;5027780;28;20217;-66
2023/10/13 09:06:47;;;;;;;14.13;6.07;;;;;;;14.20;72.36;100446.16;5029308;28;20650;-66
2023/10/13 09:09:34;;;;;;;15.43;6.17;;;;;;;14.20;72.14;100445.31;5032893;28;20206;-62
2023/10/13 09:12:10;;;;;;;9.43;5.83;;;;;;;14.21;72.36;100450.47;5028318;28;20719;-63
2023/10/13 09:14:43;;;;;;;15.10;6.43;;;;;;;14.31;72.37;100438.16;5032301;28;20600;-62
2023/10/13 09:17:34;;;;;;;11.90;6.90;;;;;;;14.44;72.18;100434.44;5028983;28;20599;-62
2023/10/13 09:20:23;;;;;;;14.03;6.67;;;;;;;14.63;71.28;100436.69;5030505;28;20209;-62
2023/10/13 09:23:07;;;;;;;11.87;6.83;;;;;;;14.80;70.89;100437.16;5029374;28;20339;-61
2023/10/13 09:25:37;;;;;;;16.73;8.03;;;;;;;14.88;70.17;100435.25;5035830;28;20205;-67
2023/10/13 09:28:14;;;;;;;11.77;7.43;;;;;;;14.93;69.11;100428.19;5027239;28;20199;-63
2023/10/13 09:30:46;;;;;;;13.13;6.80;;;;;;;15.04;69.56;100421.91;5025698;28;20207;-61
2023/10/13 09:33:15;;;;;;;12.97;7.40;;;;;;;15.25;69.43;100426.59;5031688;28;20206;-62
2023/10/13 09:35:49;;;;;;;13.80;6.80;;;;;;;15.45;68.61;100428.66;5031021;28;20323;-64
2023/10/13 09:38:16;;;;;;;12.32;6.05;;;;;;;15.49;67.90;100429.44;5033343;28;20211;-62
2023/10/13 09:40:49;;;;;;;14.77;6.60;;;;;;;15.53;67.17;100431.91;5030338;28;20675;-63
2023/10/13 09:43:19;;;;;;;14.00;6.97;;;;;;;15.53;67.32;100425.88;5030358;28;20210;-62
2023/10/13 09:48:33;;;;;;;18.00;7.60;;;;;;;15.57;67.63;100417.09;5029049;28;20213;-64
2023/10/13 09:51:03;;;;;;;16.48;6.72;;;;;;;15.66;67.94;100404.78;5032521;28;20238;-61
2023/10/13 09:53:33;;;;;;;18.73;8.68;;;;;;;15.86;67.48;100406.81;5030943;28;20195;-62
2023/10/13 09:56:13;;;;;;;12.90;7.00;;;;;;;15.99;66.50;100394.34;5030257;28;20594;-62
2023/10/13 09:58:53;;;;;;;13.20;7.13;;;;;;;16.07;66.33;100399.31;5030364;28;20258;-64
2023/10/13 10:01:31;;;;;;;11.02;6.55;;;;;;;16.08;66.27;100394.06;5028240;28;20211;-62
2023/10/13 10:04:10;;;;;;;14.05;7.00;;;;;;;16.06;66.09;100400.22;5030994;28;20225;-59
2023/10/13 10:06:44;;;;;;;10.35;6.50;;;;;;;16.08;66.87;100390.63;5032308;28;20195;-61
2023/10/13 10:09:12;;;;;;;11.75;6.72;;;;;;;16.12;66.80;100389.63;5032395;28;20214;-63
2023/10/13 10:12:08;;;;;;;14.45;6.82;;;;;;;16.18;66.56;100390.31;5034370;28;20209;-62
2023/10/13 10:15:04;;;;;;;11.30;6.93;;;;;;;16.28;66.84;100385.72;5014724;28;20202;-63
2023/10/13 10:17:40;;;;;;;12.23;6.32;;;;;;;16.36;66.66;100383.72;5033822;28;20198;-62
2023/10/13 10:20:19;;;;;;;10.80;6.60;;;;;;;16.44;66.56;100378.28;5031207;28;20210;-62
2023/10/13 10:22:58;;;;;;;15.75;6.72;;;;;;;16.46;66.01;100378.22;5032721;28;20257;-68
2023/10/13 10:25:34;;;;;;;9.75;6.45;;;;;;;16.40;66.04;100374.94;5027003;28;20202;-65
2023/10/13 10:28:05;;;;;;;13.43;6.22;;;;;;;16.38;66.26;100368.91;5028491;28;20551;-65
2023/10/13 10:30:38;;;;;;;14.65;7.03;;;;;;;16.40;66.62;100364.53;5036087;28;20198;-65
2023/10/13 10:33:12;;;;;;;10.85;6.50;;;;;;;16.45;67.11;100355.72;5030042;28;20210;-65
2023/10/13 10:35:42;;;;;;;11.80;6.53;;;;;;;16.50;66.97;100352.09;5026505;28;20226;-65
2023/10/13 10:38:16;;;;;;;14.63;7.13;;;;;;;16.55;66.59;100351.94;5025992;28;20215;-66
2023/10/13 10:40:54;;;;;;;14.00;6.45;;;;;;;16.50;66.56;100348.66;5031833;28;20688;-66
2023/10/13 10:43:30;;;;;;;13.65;6.38;;;;;;;16.45;66.65;100350.53;5031604;28;20621;-66
2023/10/13 10:46:05;;;;;;;18.38;6.47;;;;;;;16.28;67.05;100346.72;5026738;28;20206;-66
2023/10/13 10:48:34;;;;;;;15.38;6.45;;;;;;;16.25;67.89;100345.94;5026537;28;20654;-65
2023/10/13 10:51:13;;;;;;;12.40;6.03;;;;;;;16.21;68.15;100342.59;5028143;28;20209;-61
2023/10/13 10:53:46;;;;;;;12.45;6.50;;;;;;;16.16;68.68;100328.84;5026725;28;20640;-60
2023/10/13 10:56:25;;;;;;;15.07;6.03;;;;;;;16.24;68.82;100326.03;5025856;28;20245;-61
2023/10/13 10:58:56;;;;;;;14.60;6.57;;;;;;;16.27;69.07;100321.56;5026396;28;20253;-62
2023/10/13 11:01:33;;;;;;;9.95;5.97;;;;;;;16.37;69.09;100317.81;5026944;28;20943;-63
2023/10/13 11:04:07;;;;;;;13.65;6.53;;;;;;;16.50;68.90;100312.25;5034106;28;20321;-62
2023/10/13 11:06:42;;;;;;;15.15;6.43;;;;;;;16.60;68.50;100313.63;5027973;28;20654;-61
2023/10/13 11:09:21;;;;;;;12.07;6.10;;;;;;;16.71;68.04;100311.53;5035374;28;20260;-61
2023/10/13 11:11:52;;;;;;;15.98;6.53;;;;;;;16.78;68.13;100307.00;5033102;28;20221;-62
2023/10/13 11:14:22;;;;;;;10.77;5.72;;;;;;;16.85;67.95;100311.13;5027131;28;20293;-62
2023/10/13 11:16:54;;;;;;;13.52;5.70;;;;;;;16.87;67.77;100307.56;5032143;28;20724;-61
2023/10/13 11:19:34;;;;;;;13.45;6.65;;;;;;;16.91;67.71;100297.91;5039292;28;20221;-61
2023/10/13 11:22:11;;;;;;;14.60;6.68;;;;;;;16.96;67.84;100295.97;5028979;28;20202;-62
2023/10/13 11:24:43;;;;;;;13.45;6.55;;;;;;;17.01;67.70;100285.41;5028674;28;20292;-63
2023/10/13 11:27:20;;;;;;;10.57;6.60;;;;;;;17.19;67.87;100287.38;5023641;28;20206;-61
2023/10/13 11:29:52;;;;;;;8.07;5.43;;;;;;;17.52;67.52;100279.28;5030811;28;20779;-70
2023/10/13 11:32:22;;;;;;;10.50;5.80;;;;;;;17.76;66.54;100270.59;5027345;28;20217;-67
2023/10/13 11:34:54;;;;;;;11.75;5.85;;;;;;;18.01;65.57;100272.28;5026920;28;20703;-69
2023/10/13 11:37:38;;;;;;;13.00;5.90;;;;;;;18.22;64.69;100262.75;5027714;28;20212;-67
2023/10/13 11:40:12;;;;;;;10.32;6.13;;;;;;;18.41;64.58;100257.63;5025677;28;20207;-67
2023/10/13 11:42:47;;;;;;;11.45;5.70;;;;;;;18.55;63.77;100260.53;5025417;28;20210;-66
2023/10/13 11:45:28;;;;;;;8.82;5.68;;;;;;;18.65;62.98;100254.03;5028713;28;20602;-68
2023/10/13 11:47:59;;;;;;;12.70;6.28;;;;;;;18.55;62.47;100242.25;5025357;28;20309;-67
2023/10/13 11:50:34;;;;;;;11.63;6.40;;;;;;;18.54;63.18;100246.63;5025594;28;20677;-65
2023/10/13 11:53:07;;;;;;;9.40;6.95;;;;;;;18.68;63.33;100247.84;5026019;28;20327;-66
2023/10/13 11:55:36;;;;;;;10.05;5.57;;;;;;;18.97;62.82;100244.03;5029595;28;20245;-67
2023/10/13 11:58:05;;;;;;;9.38;5.32;;;;;;;19.29;62.30;100240.88;5032567;28;20317;-68
2023/10/13 12:06:19;;;;;;;12.05;5.22;;;;;;;20.33;58.92;100239.56;5031240;28;20261;-61
2023/10/13 12:08:51;;;;;;;9.15;5.05;;;;;;;20.52;58.13;100229.06;5033429;28;20238;-62
2023/10/13 12:11:32;;;;;;;10.77;5.82;;;;;;;20.63;57.42;100232.84;5029786;28;20206;-60
2023/10/13 12:14:11;;;;;;;9.73;5.65;;;;;;;20.71;57.05;100220.22;5030753;28;20198;-61
2023/10/13 12:16:39;;;;;;;12.85;5.75;;;;;;;20.73;56.62;100228.84;5022598;28;20850;-60
2023/10/13 12:19:11;;;;;;;16.90;5.50;;;;;;;20.75;56.61;100220.91;5021781;28;20206;-62
2023/10/13 12:21:40;;;;;;;9.15;5.03;;;;;;;20.78;56.48;100214.66;5021986;28;20294;-61
2023/10/13 12:24:22;;;;;;;10.63;5.65;;;;;;;20.62;56.13;100214.56;5020891;28;20219;-62
2023/10/13 12:26:55;;;;;;;7.70;5.38;;;;;;;20.32;56.84;100212.53;5020836;28;20233;-61
2023/10/13 12:29:28;;;;;;;12.45;6.03;;;;;;;20.11;58.02;100205.75;5024616;28;20199;-63
2023/10/13 12:32:07;;;;;;;9.18;5.70;;;;;;;19.92;58.89;100195.31;5030403;28;20620;-60
2023/10/13 12:37:38;;;;;;;13.48;5.25;;;;;;;19.75;60.04;100191.72;5024260;28;20203;-64
2023/10/13 12:51:21;;;;;;;8.60;5.82;;;;;;;19.82;60.45;100178.38;5032745;28;20211;-67
2023/10/13 12:53:49;;;;;;;13.20;5.68;;;;;;;19.59;60.86;100169.81;5033221;28;20236;-67
2023/10/13 12:56:25;;;;;;;12.73;6.00;;;;;;;19.34;61.29;100174.50;5029426;28;20242;-66
2023/10/13 12:58:54;;;;;;;12.15;6.38;;;;;;;19.06;62.73;100165.28;5029581;28;20668;-68
2023/10/13 13:01:24;;;;;;;12.20;6.22;;;;;;;18.85;63.65;100161.00;5031474;28;20213;-67
2023/10/13 13:03:55;;;;;;;13.13;6.65;;;;;;;18.67;64.75;100158.25;5031858;28;20218;-69
2023/10/13 13:06:26;;;;;;;12.68;6.55;;;;;;;18.56;65.42;100161.31;5033823;28;20198;-68
2023/10/13 13:08:55;;;;;;;11.38;5.88;;;;;;;18.48;65.79;100167.75;5033986;28;20287;-69
2023/10/13 13:11:24;;;;;;;12.63;5.95;;;;;;;18.42;66.35;100176.72;5030534;28;20207;-69
2023/10/13 13:13:54;;;;;;;10.50;6.53;;;;;;;18.39;66.68;100170.78;5025772;28;20221;-69
2023/10/13 13:16:25;;;;;;;12.90;6.43;;;;;;;18.42;66.91;100175.88;5031167;28;20199;-63
2023/10/13 13:18:54;;;;;;;13.65;7.30;;;;;;;18.42;66.91;100174.09;5028505;28;20588;-67
2023/10/13 13:21:24;;;;;;;13.30;6.22;;;;;;;18.41;66.98;100163.72;5031919;28;20203;-66
2023/10/13 13:23:54;;;;;;;11.15;6.50;;;;;;;18.35;67.29;100157.84;5028114;28;20328;-68
2023/10/13 13:26:22;;;;;;;12.25;6.65;;;;;;;18.28;67.66;100151.19;5035467;28;20222;-69
2023/10/13 13:28:51;;;;;;;12.30;6.75;;;;;;;18.22;67.91;100156.66;5033239;28;20214;-67
2023/10/13 13:31:25;;;;;;;13.95;6.50;;;;;;;18.18;68.42;100151.63;5029771;28;20210;-67
2023/10/13 13:33:53;;;;;;;10.35;6.57;;;;;;;18.12;68.76;100142.31;5032879;28;20705;-72
2023/10/13 13:36:22;;;;;;;10.55;6.40;;;;;;;18.09;69.08;100145.03;5028967;28;20286;-64
2023/10/13 13:38:51;;;;;;;11.15;6.47;;;;;;;18.08;69.32;100141.59;5028141;28;20203;-67
2023/10/13 13:41:20;;;;;;;15.45;6.53;;;;;;;18.09;69.47;100132.00;5030055;28;20214;-69
2023/10/13 13:43:56;;;;;;;11.68;6.60;;;;;;;18.05;69.50;100122.63;5029395;28;20203;-70
2023/10/13 13:46:27;;;;;;;17.65;7.50;;;;;;;18.03;69.63;100112.22;5031868;28;20545;-68
2023/10/13 13:48:59;;;;;;;13.38;6.45;;;;;;;18.02;69.87;100114.91;5030224;28;20611;-66